Time;durP1;ratioP1;P1;durP2;ratioP2;P2;SDS_P1;SDS_P2;PMS_P1;PMS_P2;Temp;Humidity;BMP_temperature;BMP_pressure;BME280_temperature;BME280_humidity;BME280_pressure;Samples;Min_cycle;Max_cycle;Signal;HPM_P1;HPM_P2
2023/03/28 00:01:37;;;;;;;1.60;0.77;;;3.50;99.90;;;3.23;100.00;102028.53;5196856;28;20042;-81
2023/03/28 00:04:10;;;;;;;1.58;0.85;;;3.50;99.90;;;3.20;100.00;102033.44;5196697;28;20049;-81
2023/03/28 00:06:44;;;;;;;1.50;1.10;;;3.40;99.90;;;3.17;100.00;102034.06;5198653;28;20052;-81
2023/03/28 00:09:17;;;;;;;2.17;0.80;;;3.40;99.90;;;3.18;100.00;102024.66;5197647;28;20076;-81
2023/03/28 00:11:49;;;;;;;1.15;0.90;;;3.40;99.90;;;3.18;100.00;102032.38;5197124;28;20076;-82
2023/03/28 00:14:21;;;;;;;1.98;1.05;;;3.40;99.90;;;3.15;100.00;102035.63;5193202;28;20042;-80
2023/03/28 00:16:56;;;;;;;3.72;0.90;;;3.40;99.90;;;3.14;100.00;102038.06;5193908;28;20052;-81
2023/03/28 00:19:31;;;;;;;4.85;0.88;;;3.40;99.90;;;3.12;100.00;102037.03;5198355;28;20044;-81
2023/03/28 00:22:03;;;;;;;2.25;1.00;;;3.40;99.90;;;3.09;100.00;102039.34;5196718;28;20096;-81
2023/03/28 00:24:37;;;;;;;1.45;0.73;;;3.40;99.90;;;3.07;100.00;102036.66;5198847;28;20041;-80
2023/03/28 00:27:09;;;;;;;3.17;1.00;;;3.30;99.90;;;3.07;100.00;102041.81;5197393;28;20562;-82
2023/03/28 00:29:42;;;;;;;2.92;0.93;;;3.30;99.90;;;3.05;100.00;102037.28;5199771;28;20052;-81
2023/03/28 00:32:15;;;;;;;3.03;1.13;;;3.30;99.90;;;3.03;100.00;102038.84;5200009;28;20033;-80
2023/03/28 00:34:47;;;;;;;3.10;1.00;;;3.30;99.90;;;3.00;100.00;102039.50;5200533;28;20090;-82
2023/03/28 00:37:21;;;;;;;1.17;0.70;;;3.30;99.90;;;2.97;100.00;102040.13;5201305;28;20048;-81
2023/03/28 00:39:53;;;;;;;2.90;1.20;;;3.20;99.90;;;2.96;100.00;102042.56;5194555;28;20106;-82
2023/03/28 00:42:26;;;;;;;3.47;0.80;;;3.20;99.90;;;2.92;100.00;102037.91;5194794;28;20046;-81
2023/03/28 00:44:59;;;;;;;2.35;1.17;;;3.20;99.90;;;2.89;100.00;102040.25;5192599;28;20046;-81
2023/03/28 00:47:40;;;;;;;1.65;0.77;;;3.10;99.90;;;2.86;100.00;102035.72;5188808;28;20042;-80
2023/03/28 00:50:19;;;;;;;3.70;1.05;;;3.10;99.90;;;2.82;100.00;102043.97;5194868;28;20050;-81
2023/03/28 00:52:57;;;;;;;1.95;0.80;;;3.10;99.90;;;2.79;100.00;102048.84;5194220;28;20089;-81
2023/03/28 00:55:34;;;;;;;2.65;0.95;;;3.10;99.90;;;2.80;100.00;102048.06;5193433;28;20046;-81
2023/03/28 00:58:11;;;;;;;1.10;0.70;;;3.00;99.90;;;2.82;100.00;102051.69;5196642;28;20041;-81
2023/03/28 01:00:45;;;;;;;3.08;1.25;;;3.10;99.90;;;2.79;100.00;102038.53;5196312;28;20034;-81
2023/03/28 01:03:26;;;;;;;3.22;0.90;;;3.10;99.90;;;2.80;100.00;102047.16;5182873;28;20034;-81
2023/03/28 01:05:58;;;;;;;3.13;0.98;;;3.00;99.90;;;2.78;100.00;102044.47;5195243;28;20058;-80
2023/03/28 01:08:45;;;;;;;3.88;0.98;;;3.00;99.90;;;2.72;100.00;102042.28;5195296;28;20056;-81
2023/03/28 01:11:18;;;;;;;2.25;1.10;;;3.00;99.90;;;2.67;100.00;102047.78;5179550;28;20049;-81
2023/03/28 01:13:52;;;;;;;1.88;0.80;;;2.90;99.90;;;2.59;100.00;102036.84;5188876;28;20049;-81
2023/03/28 01:16:31;;;;;;;4.43;1.13;;;2.90;99.90;;;2.55;100.00;102051.91;5195108;28;20033;-81
2023/03/28 01:19:11;;;;;;;4.22;1.73;;;2.80;99.90;;;2.47;100.00;102042.59;5195654;28;20893;-80
2023/03/28 01:22:38;;;;;;;2.78;0.93;;;2.80;99.90;;;2.41;100.00;102050.69;5197442;28;20053;-81
2023/03/28 01:26:07;;;;;;;1.55;0.70;;;2.70;99.90;;;2.35;100.00;102048.50;5186194;28;20046;-81
2023/03/28 01:29:02;;;;;;;1.75;1.17;;;2.60;99.90;;;2.30;100.00;102043.72;5153637;28;20046;-82
2023/03/28 01:32:18;;;;;;;2.42;0.82;;;2.60;99.90;;;2.24;100.00;102043.19;5196847;28;20038;-81
2023/03/28 01:36:02;;;;;;;3.05;0.95;;;2.60;99.90;;;2.20;100.00;102042.00;5196750;28;20042;-81
2023/03/28 01:38:40;;;;;;;1.05;0.80;;;2.50;99.90;;;2.19;100.00;102045.34;5189882;28;20052;-81
2023/03/28 01:41:23;;;;;;;3.28;1.13;;;2.50;99.90;;;2.18;100.00;102040.97;5194113;28;20038;-81
2023/03/28 01:44:06;;;;;;;3.00;1.10;;;2.50;99.90;;;2.19;100.00;102040.19;5177977;28;20039;-81
2023/03/28 01:46:44;;;;;;;2.78;1.02;;;2.50;99.90;;;2.21;100.00;102042.88;5196931;28;20046;-81
2023/03/28 01:49:29;;;;;;;3.58;1.35;;;2.50;99.90;;;2.19;100.00;102040.19;5181325;28;20558;-81
2023/03/28 01:52:09;;;;;;;2.58;1.05;;;2.50;99.90;;;2.17;100.00;102032.34;5190593;28;20129;-81
2023/03/28 01:54:52;;;;;;;4.32;1.50;;;2.50;99.90;;;2.19;100.00;102035.03;5198537;28;20049;-79
2023/03/28 01:57:31;;;;;;;3.70;1.25;;;2.50;99.90;;;2.16;100.00;102034.78;5198574;28;20073;-82
2023/03/28 02:00:14;;;;;;;2.90;1.20;;;2.50;99.90;;;2.16;100.00;102034.78;5197802;28;20050;-81
2023/03/28 02:03:11;;;;;;;4.38;1.25;;;2.50;99.90;;;2.13;100.00;102029.34;5186433;28;21731;-81
2023/03/28 02:05:53;;;;;;;2.05;1.40;;;2.40;99.90;;;2.09;100.00;102033.34;5192141;28;20074;-81
2023/03/28 02:08:29;;;;;;;3.08;1.50;;;2.40;99.90;;;2.04;100.00;102037.19;5195374;28;20050;-82
2023/03/28 02:11:37;;;;;;;5.50;1.50;;;2.40;99.90;;;2.01;100.00;102031.75;5173720;28;20102;-81
2023/03/28 02:14:40;;;;;;;1.98;1.15;;;2.30;99.90;;;1.97;100.00;102029.69;5195814;28;20049;-82
2023/03/28 02:17:35;;;;;;;4.20;1.13;;;2.30;99.90;;;1.92;100.00;102023.22;5190266;28;20048;-82
2023/03/28 02:20:19;;;;;;;2.97;1.40;;;2.30;99.90;;;1.88;100.00;102022.03;5195893;28;20199;-81
2023/03/28 02:23:16;;;;;;;2.30;1.10;;;2.20;99.90;;;1.85;100.00;102029.50;5195227;28;20049;-81
2023/03/28 02:26:12;;;;;;;1.95;1.10;;;2.20;99.90;;;1.84;100.00;102032.84;5188195;28;20042;-81
2023/03/28 02:29:16;;;;;;;1.85;0.95;;;2.20;99.90;;;1.84;100.00;102027.69;5195089;28;20503;-81
2023/03/28 02:32:20;;;;;;;3.17;1.40;;;2.20;99.90;;;1.84;100.00;102025.13;5196258;28;20048;-80
2023/03/28 02:34:54;;;;;;;2.20;1.02;;;2.10;99.90;;;1.82;100.00;102021.50;5195344;28;20049;-82
2023/03/28 02:37:38;;;;;;;2.17;1.00;;;2.10;99.90;;;1.82;100.00;102016.34;5195328;28;20046;-82
2023/03/28 02:40:31;;;;;;;1.58;1.02;;;2.10;99.90;;;1.82;100.00;102023.16;5197196;28;20045;-82
2023/03/28 02:43:35;;;;;;;2.92;1.35;;;2.10;99.90;;;1.80;100.00;102023.03;5195734;28;20115;-81
2023/03/28 02:46:22;;;;;;;3.17;1.48;;;2.10;99.90;;;1.78;100.00;102018.53;5195649;28;20072;-82
2023/03/28 02:49:29;;;;;;;3.72;1.08;;;2.10;99.90;;;1.75;100.00;102024.28;5196342;28;20069;-81
2023/03/28 02:52:13;;;;;;;2.88;1.00;;;2.10;99.90;;;1.73;100.00;102035.22;5188937;28;20046;-82
2023/03/28 02:54:53;;;;;;;3.28;1.17;;;2.10;99.90;;;1.69;100.00;102025.41;5201488;28;20044;-81
2023/03/28 02:57:38;;;;;;;1.77;1.00;;;2.00;99.90;;;1.67;100.00;102024.38;5201827;28;20045;-82
2023/03/28 03:00:17;;;;;;;4.32;1.10;;;2.00;99.90;;;1.66;100.00;102031.19;5201777;28;20042;-81
2023/03/28 03:02:52;;;;;;;2.33;1.20;;;2.00;99.90;;;1.67;100.00;102032.09;5202832;28;20038;-81
2023/03/28 03:05:25;;;;;;;3.03;1.40;;;2.00;99.90;;;1.69;100.00;102028.88;5198474;28;20053;-82
2023/03/28 03:07:57;;;;;;;3.75;1.55;;;2.00;99.90;;;1.68;100.00;102029.66;5197464;28;20046;-82
2023/03/28 03:10:29;;;;;;;4.85;1.52;;;2.00;99.90;;;1.67;100.00;102030.41;5197721;28;20081;-81
2023/03/28 03:13:02;;;;;;;7.30;1.50;;;2.00;99.90;;;1.68;100.00;102032.22;5197829;28;20114;-82
2023/03/28 03:15:35;;;;;;;2.88;1.33;;;2.00;99.90;;;1.68;100.00;102034.78;5198627;28;20062;-81
2023/03/28 03:18:24;;;;;;;3.92;1.67;;;2.00;99.90;;;1.68;100.00;102036.47;5201323;28;20105;-81
2023/03/28 03:20:56;;;;;;;3.92;1.70;;;2.00;99.90;;;1.65;100.00;102033.63;5193886;28;20046;-81
2023/03/28 03:23:28;;;;;;;3.30;1.35;;;2.00;99.90;;;1.60;100.00;102043.47;5201475;28;20667;-81
2023/03/28 03:26:03;;;;;;;3.72;1.67;;;2.00;99.90;;;1.59;100.00;102039.13;5200183;28;20113;-81
2023/03/28 03:28:48;;;;;;;3.92;2.00;;;1.90;99.90;;;1.56;100.00;102033.69;5201770;28;20042;-81
2023/03/28 03:31:22;;;;;;;5.72;2.50;;;1.90;99.90;;;1.56;100.00;102036.25;5202388;28;20105;-82
2023/03/28 03:34:16;;;;;;;7.25;2.55;;;1.90;99.90;;;1.52;100.00;102045.38;5180266;28;20100;-82
2023/03/28 03:36:53;;;;;;;4.10;1.98;;;1.80;99.90;;;1.49;100.00;102044.16;5199142;28;20041;-81
2023/03/28 03:39:26;;;;;;;4.57;1.73;;;1.80;99.90;;;1.47;100.00;102035.44;5197317;28;20157;-81
2023/03/28 03:41:58;;;;;;;4.75;2.03;;;1.80;99.90;;;1.47;100.00;102045.72;5198605;28;20176;-81
2023/03/28 03:44:30;;;;;;;5.60;2.05;;;1.80;99.90;;;1.48;100.00;102039.81;5200957;28;20068;-81
2023/03/28 03:47:03;;;;;;;4.88;2.83;;;1.80;99.90;;;1.48;100.00;102039.81;5200225;28;20477;-83
2023/03/28 03:49:36;;;;;;;5.63;2.53;;;1.80;99.90;;;1.48;100.00;102042.38;5195362;28;20129;-81
2023/03/28 03:52:09;;;;;;;5.70;2.35;;;1.80;99.90;;;1.46;100.00;102038.78;5198960;28;20046;-81
2023/03/28 03:54:41;;;;;;;6.75;2.20;;;1.80;99.90;;;1.47;100.00;102048.28;5200216;28;20046;-81
2023/03/28 03:57:16;;;;;;;3.58;1.83;;;1.80;99.90;;;1.45;100.00;102044.69;5198987;28;20125;-81
2023/03/28 03:59:48;;;;;;;2.45;1.50;;;1.80;99.90;;;1.43;100.00;102046.19;5190655;28;20074;-81
2023/03/28 04:02:22;;;;;;;6.00;2.38;;;1.80;99.90;;;1.41;100.00;102046.06;5197852;28;20476;-82
2023/03/28 04:05:07;;;;;;;3.60;2.17;;;1.70;99.90;;;1.42;100.00;102046.94;5197489;28;20077;-81
2023/03/28 04:07:51;;;;;;;4.20;1.95;;;1.70;99.90;;;1.42;100.00;102054.66;5189427;28;20073;-81
2023/03/28 04:10:45;;;;;;;5.43;2.33;;;1.80;99.90;;;1.40;100.00;102051.06;5199400;28;20057;-81
2023/03/28 04:13:17;;;;;;;4.63;1.90;;;1.70;99.90;;;1.38;100.00;102062.88;5178848;28;20046;-82
2023/03/28 04:15:55;;;;;;;6.50;2.33;;;1.70;99.90;;;1.38;100.00;102066.34;5196086;28;20040;-81
2023/03/28 04:18:34;;;;;;;4.68;1.92;;;1.70;99.90;;;1.36;100.00;102055.91;5197757;28;20069;-81
2023/03/28 04:21:09;;;;;;;3.35;2.15;;;1.70;99.90;;;1.36;100.00;102062.72;5198597;28;20054;-81
2023/03/28 04:23:47;;;;;;;5.05;2.10;;;1.70;99.90;;;1.30;100.00;102068.22;5197589;28;20042;-81
2023/03/28 04:26:39;;;;;;;4.57;2.00;;;1.70;99.90;;;1.30;100.00;102068.22;5198963;28;20046;-81
2023/03/28 04:29:17;;;;;;;5.20;1.90;;;1.70;99.90;;;1.30;100.00;102063.06;5197680;28;20080;-81
2023/03/28 04:32:01;;;;;;;3.97;1.85;;;1.70;99.90;;;1.30;100.00;102052.81;5200658;28;20112;-81
2023/03/28 04:35:04;;;;;;;3.88;1.75;;;1.70;99.90;;;1.28;100.00;102059.44;5198079;28;20049;-81
2023/03/28 04:37:38;;;;;;;6.32;2.35;;;1.70;99.90;;;1.27;100.00;102062.78;5197558;28;20038;-81
2023/03/28 04:40:14;;;;;;;4.13;1.58;;;1.60;99.90;;;1.27;100.00;102062.78;5198346;28;20048;-81
2023/03/28 04:42:58;;;;;;;5.25;1.60;;;1.60;99.90;;;1.26;100.00;102075.50;5197405;28;20057;-81
2023/03/28 04:45:37;;;;;;;3.95;1.65;;;1.60;99.90;;;1.24;100.00;102072.78;5183406;28;20042;-81
2023/03/28 04:48:18;;;;;;;6.13;2.13;;;1.60;99.90;;;1.21;100.00;102072.50;5189789;28;20115;-81
2023/03/28 04:50:50;;;;;;;7.70;1.83;;;1.60;99.90;;;1.19;100.00;102066.31;5188802;28;20053;-81
2023/03/28 04:53:24;;;;;;;3.47;1.50;;;1.60;99.90;;;1.17;100.00;102075.53;5197320;28;20038;-81
2023/03/28 04:56:15;;;;;;;5.57;1.83;;;1.60;99.90;;;1.15;100.00;102077.06;5196124;28;20038;-82
2023/03/28 04:58:47;;;;;;;3.38;1.85;;;1.50;99.90;;;1.16;100.00;102073.72;5196747;28;20061;-81
2023/03/28 05:01:21;;;;;;;6.63;1.75;;;1.50;99.90;;;1.17;100.00;102075.53;5183851;28;20045;-81
2023/03/28 05:04:31;;;;;;;2.63;1.25;;;1.50;99.90;;;1.16;100.00;102072.81;5138092;29;20043;-82
2023/03/28 05:07:08;;;;;;;3.90;1.35;;;1.50;99.90;;;1.12;100.00;102076.78;5112294;29;20059;-82
2023/03/28 05:09:42;;;;;;;5.70;1.85;;;1.50;99.90;;;1.13;100.00;102083.72;5157989;28;20051;-81
2023/03/28 05:12:14;;;;;;;4.72;1.65;;;1.50;99.90;;;1.15;100.00;102081.28;5197413;28;20129;-80
2023/03/28 05:15:06;;;;;;;4.47;1.60;;;1.50;99.90;;;1.19;100.00;102080.81;5184379;28;20138;-81
2023/03/28 05:17:50;;;;;;;3.97;1.23;;;1.50;99.90;;;1.20;100.00;102086.09;5199310;28;20439;-82
2023/03/28 05:20:31;;;;;;;5.35;1.85;;;1.50;99.90;;;1.16;100.00;102081.44;5199252;28;20514;-80
2023/03/28 05:23:06;;;;;;;2.22;1.30;;;1.50;99.90;;;1.13;100.00;102088.88;5191124;28;20042;-82
2023/03/28 05:25:41;;;;;;;2.58;1.20;;;1.50;99.90;;;1.11;100.00;102095.53;5201141;28;20046;-81
2023/03/28 05:28:13;;;;;;;2.88;1.33;;;1.50;99.90;;;1.08;100.00;102091.00;5194864;28;20094;-81
2023/03/28 05:30:54;;;;;;;3.72;1.40;;;1.50;99.90;;;1.07;100.00;102088.28;5185492;28;20042;-81
2023/03/28 05:33:27;;;;;;;2.47;1.55;;;1.50;99.90;;;1.08;100.00;102095.22;5197348;28;20038;-81
2023/03/28 05:36:00;;;;;;;3.08;1.42;;;1.40;99.90;;;1.09;100.00;102091.91;5196867;28;20061;-81
2023/03/28 05:38:37;;;;;;;6.05;1.40;;;1.40;99.90;;;1.13;100.00;102096.56;5197726;28;20133;-82
2023/03/28 05:41:17;;;;;;;3.28;1.42;;;1.50;99.90;;;1.17;100.00;102096.06;5198554;28;20117;-80
2023/03/28 05:43:50;;;;;;;2.50;1.52;;;1.50;99.90;;;1.19;100.00;102099.72;5198512;28;20042;-81
2023/03/28 05:46:34;;;;;;;4.68;1.63;;;1.60;99.90;;;1.22;100.00;102094.84;5198134;28;20034;-81
2023/03/28 05:49:06;;;;;;;5.78;1.58;;;1.60;99.90;;;1.25;100.00;102095.16;5196171;28;20053;-81
2023/03/28 05:51:38;;;;;;;5.28;1.77;;;1.60;99.90;;;1.30;100.00;102093.91;5183122;28;20072;-82
2023/03/28 05:54:10;;;;;;;4.43;1.90;;;1.70;99.90;;;1.34;100.00;102101.13;5196833;28;20060;-81
2023/03/28 05:56:44;;;;;;;4.78;1.63;;;1.70;99.90;;;1.41;100.00;102101.69;5174959;28;20047;-82
2023/03/28 05:59:17;;;;;;;3.08;1.95;;;1.70;99.90;;;1.45;100.00;102098.66;5190143;28;20558;-81
2023/03/28 06:01:51;;;;;;;2.28;1.55;;;1.80;99.90;;;1.50;100.00;102102.50;5174821;28;20045;-81
2023/03/28 06:04:24;;;;;;;5.50;2.00;;;1.80;99.90;;;1.54;100.00;102099.47;5182561;28;20049;-85
2023/03/28 06:06:56;;;;;;;5.05;1.48;;;1.90;99.90;;;1.60;100.00;102094.91;5190528;28;20046;-85
2023/03/28 06:09:30;;;;;;;4.07;1.65;;;1.90;99.90;;;1.66;100.00;102105.72;5185573;28;20043;-84
2023/03/28 06:12:07;;;;;;;5.97;1.80;;;2.00;99.90;;;1.72;100.00;102101.16;5189906;28;20096;-84
2023/03/28 06:14:42;;;;;;;4.10;1.77;;;2.10;99.90;;;1.80;100.00;102105.31;5174878;28;20046;-84
2023/03/28 06:17:25;;;;;;;5.75;2.03;;;2.10;99.90;;;1.90;100.00;102107.97;5189221;28;20069;-84
2023/03/28 06:20:04;;;;;;;7.00;2.13;;;2.20;99.90;;;2.00;100.00;102106.22;5182004;28;20047;-85
2023/03/28 06:22:37;;;;;;;6.53;2.47;;;2.30;99.90;;;2.41;100.00;102104.72;5190351;28;20120;-84
2023/03/28 06:25:13;;;;;;;9.75;2.33;;;2.50;99.90;;;4.34;100.00;102103.88;5184508;28;20054;-86
2023/03/28 06:27:47;;;;;;;6.20;2.25;;;3.60;99.90;;;6.81;100.00;102103.66;5190553;28;20129;-85
2023/03/28 06:30:20;;;;;;;5.35;2.22;;;5.30;99.90;;;9.12;92.30;102116.34;5179074;28;20038;-86
2023/03/28 06:32:56;;;;;;;9.00;2.17;;;7.20;99.90;;;11.06;81.10;102115.47;5188066;28;20092;-86
2023/03/28 06:35:29;;;;;;;5.93;1.95;;;9.00;99.90;;;12.62;73.50;102117.28;5184756;28;20566;-86
2023/03/28 06:38:01;;;;;;;7.32;2.00;;;10.50;99.20;;;13.99;67.72;102122.59;5190092;28;20045;-86
2023/03/28 06:40:33;;;;;;;9.07;2.20;;;11.80;94.10;;;15.10;63.96;102131.41;5191844;28;20042;-85
2023/03/28 06:43:06;;;;;;;5.00;1.80;;;13.00;90.10;;;16.04;60.44;102128.69;5175606;28;20575;-86
2023/03/28 06:45:52;;;;;;;5.00;1.83;;;14.00;83.30;;;16.69;58.23;102129.00;5187809;28;20105;-86
2023/03/28 06:48:29;;;;;;;5.88;1.90;;;14.80;77.30;;;17.11;56.87;102144.34;5172161;28;20069;-86
2023/03/28 06:51:20;;;;;;;6.95;1.85;;;15.30;73.90;;;17.82;54.60;102148.16;5193386;28;20671;-87
2023/03/28 06:53:54;;;;;;;5.35;1.80;;;15.90;70.10;;;18.16;55.02;102145.50;5193251;28;20050;-91
2023/03/28 06:56:30;;;;;;;3.75;1.42;;;16.40;70.50;;;18.32;51.92;102152.09;5193610;28;20065;-91
2023/03/28 06:59:05;;;;;;;7.50;2.00;;;16.70;65.60;;;18.35;51.25;102140.69;5185937;28;20113;-90
2023/03/28 07:01:39;;;;;;;7.90;2.08;;;16.70;64.20;;;18.25;50.53;102149.22;5186341;28;20046;-90
2023/03/28 07:04:14;;;;;;;3.47;1.83;;;16.70;63.10;;;17.99;50.54;102149.47;5180291;28;20042;-90
2023/03/28 07:06:50;;;;;;;5.80;2.20;;;16.50;63.00;;;17.83;51.22;102150.81;5171920;28;20057;-91
2023/03/28 07:09:22;;;;;;;8.18;2.65;;;16.40;63.20;;;17.79;50.82;102151.56;5183457;28;20049;-90
2023/03/28 07:12:00;;;;;;;5.65;2.13;;;16.40;63.00;;;17.96;50.67;102156.41;5192323;28;20042;-89
2023/03/28 07:14:35;;;;;;;5.28;2.25;;;16.50;62.60;;;18.16;50.59;102155.19;5187391;28;20104;-89
2023/03/28 07:17:07;;;;;;;6.72;2.15;;;16.70;62.50;;;18.11;50.42;102147.13;5186648;28;20050;-90
2023/03/28 07:19:40;;;;;;;8.10;1.90;;;16.70;62.10;;;18.21;50.17;102152.66;5183494;28;20042;-90
2023/03/28 07:22:12;;;;;;;6.75;2.00;;;16.70;61.80;;;18.53;49.71;102148.16;5190635;28;20045;-89
2023/03/28 07:24:45;;;;;;;6.30;1.90;;;17.00;61.50;;;18.75;49.29;102149.59;5182860;28;20054;-89
2023/03/28 07:27:18;;;;;;;3.25;1.67;;;17.20;60.70;;;18.89;49.42;102156.06;5190493;28;20138;-82
2023/03/28 07:29:53;;;;;;;4.30;1.70;;;17.50;60.60;;;18.95;48.41;102151.81;5184532;28;20042;-90
2023/03/28 07:32:25;;;;;;;6.70;2.03;;;17.60;59.60;;;19.10;48.56;102151.22;5169802;28;20038;-89
2023/03/28 07:34:57;;;;;;;6.75;1.80;;;17.70;59.20;;;19.31;47.43;102163.16;5187151;28;20042;-90
2023/03/28 07:37:33;;;;;;;7.55;1.98;;;17.90;58.50;;;19.35;47.21;102157.03;5182175;28;20103;-90
2023/03/28 07:40:21;;;;;;;10.65;2.25;;;18.00;58.10;;;19.32;46.29;102159.63;5190904;28;20045;-89
2023/03/28 07:42:53;;;;;;;4.78;1.88;;;18.00;57.10;;;19.21;46.68;102157.66;5190087;28;20034;-89
2023/03/28 07:45:27;;;;;;;5.43;1.90;;;17.90;57.20;;;18.92;47.23;102166.72;5167987;28;20460;-89
2023/03/28 07:48:00;;;;;;;5.50;1.60;;;17.70;57.50;;;19.11;46.94;102158.34;5190044;28;20042;-89
2023/03/28 07:50:32;;;;;;;6.15;1.60;;;17.80;57.60;;;19.30;46.65;102163.97;5181861;28;20500;-89
2023/03/28 07:53:05;;;;;;;6.05;1.60;;;17.90;57.40;;;19.15;45.96;102167.19;5190470;28;20065;-89
2023/03/28 07:55:42;;;;;;;6.03;1.48;;;17.80;56.50;;;19.14;46.37;102166.31;5190798;28;20044;-89
2023/03/28 07:58:15;;;;;;;4.18;1.60;;;17.70;56.90;;;19.34;46.10;102165.84;5173324;28;20085;-90
2023/03/28 08:00:51;;;;;;;5.03;1.60;;;17.70;56.80;;;19.41;45.73;102157.16;5190600;28;20038;-90
2023/03/28 08:03:43;;;;;;;4.97;1.67;;;17.70;56.60;;;19.63;45.56;102170.00;5190935;28;20065;-90
2023/03/28 08:06:16;;;;;;;5.13;1.50;;;17.70;56.60;;;19.66;45.16;102148.88;5181508;28;20048;-89
2023/03/28 08:08:49;;;;;;;2.92;1.30;;;17.60;56.30;;;19.96;45.30;102158.25;5175924;28;20096;-91
2023/03/28 08:11:43;;;;;;;3.83;1.30;;;17.70;56.90;;;20.59;44.43;102162.84;5169801;28;20045;-88
2023/03/28 08:14:17;;;;;;;5.55;1.63;;;18.10;56.40;;;21.24;43.75;102160.22;5188143;28;20042;-89
2023/03/28 08:16:51;;;;;;;4.25;1.65;;;18.60;55.90;;;21.59;42.48;102173.94;5170361;28;20137;-90
2023/03/28 08:19:23;;;;;;;4.95;1.50;;;18.90;54.70;;;21.83;42.09;102168.00;5239945;23;20524;-60
2023/03/28 08:22:26;;;;;;;4.35;1.40;;;19.20;54.30;;;21.98;41.49;102166.38;5212236;28;20505;-59
2023/03/28 08:25:17;;;;;;;5.15;1.90;;;19.40;53.80;;;22.17;41.21;102168.38;5207115;28;20095;-60
2023/03/28 08:27:50;;;;;;;4.65;1.25;;;19.50;53.50;;;22.40;40.86;102164.13;5210576;28;20045;-59
2023/03/28 08:30:22;;;;;;;4.10;1.25;;;19.70;53.40;;;22.64;40.58;102170.50;5205379;28;20049;-59
2023/03/28 08:33:04;;;;;;;4.80;1.30;;;19.90;53.30;;;22.65;39.66;102172.28;5205382;28;20460;-59
2023/03/28 08:35:38;;;;;;;4.90;1.30;;;20.00;52.40;;;22.46;39.85;102172.13;5205521;28;20445;-61
2023/03/28 08:38:18;;;;;;;4.38;1.30;;;19.90;52.40;;;22.65;40.59;102161.63;5204035;28;20052;-59
2023/03/28 08:41:01;;;;;;;5.13;1.40;;;20.00;53.30;;;22.78;40.31;102167.91;5199814;28;20165;-59
2023/03/28 08:44:21;;;;;;;1.85;1.00;;;20.20;52.90;;;22.68;39.67;102166.97;5197252;28;20045;-58
2023/03/28 08:46:59;;;;;;;3.33;1.10;;;20.10;52.30;;;22.43;39.35;102166.81;5199049;28;20068;-60
2023/03/28 08:49:39;;;;;;;5.88;1.35;;;19.90;51.90;;;22.41;39.95;102172.97;5195625;28;20049;-60
2023/03/28 08:52:16;;;;;;;3.60;1.33;;;19.80;52.60;;;22.24;39.61;102169.31;5220428;28;20580;-59
2023/03/28 08:54:53;;;;;;;3.17;1.10;;;19.70;52.10;;;21.87;39.58;102167.16;5203599;28;20053;-59
2023/03/28 08:57:28;;;;;;;4.75;1.50;;;19.50;51.90;;;21.28;39.80;102172.69;5203179;28;20048;-59
2023/03/28 09:00:11;;;;;;;5.35;1.52;;;19.10;51.90;;;21.26;40.51;102171.75;5204378;28;20063;-59
2023/03/28 09:02:44;;;;;;;4.20;0.88;;;19.10;52.70;;;21.10;40.78;102175.06;5204834;28;20044;-59
2023/03/28 09:05:31;;;;;;;3.15;1.13;;;19.00;52.90;;;20.54;41.02;102159.25;5203273;28;20124;-59
2023/03/28 09:08:27;;;;;;;2.33;0.63;;;18.80;52.70;;;19.55;42.43;102160.97;5220150;28;20513;-58
2023/03/28 09:11:15;;;;;;;3.78;0.80;;;18.20;53.40;;;18.80;42.48;102169.06;5215424;28;20148;-59
2023/03/28 09:13:59;;;;;;;2.35;0.93;;;17.60;53.50;;;17.88;43.07;102164.13;5204118;28;20041;-58
2023/03/28 09:16:57;;;;;;;3.40;0.90;;;17.00;53.40;;;16.68;44.51;102159.69;5211953;28;20127;-58
2023/03/28 09:19:51;;;;;;;1.48;0.63;;;16.00;54.10;;;15.77;46.80;102162.78;5195114;28;20041;-59
2023/03/28 09:23:04;;;;;;;2.58;1.00;;;15.30;56.00;;;15.09;47.74;102171.66;5198375;28;20058;-59
2023/03/28 09:25:56;;;;;;;2.85;0.70;;;14.60;57.00;;;14.58;48.43;102163.53;5215463;28;20042;-59
2023/03/28 09:28:42;;;;;;;2.67;0.70;;;14.10;57.60;;;14.25;49.69;102157.75;5202948;28;20049;-59
2023/03/28 09:31:16;;;;;;;2.35;0.77;;;13.80;58.70;;;14.04;51.03;102163.00;5203032;28;20532;-59
2023/03/28 09:33:49;;;;;;;5.82;1.98;;;13.50;59.90;;;13.99;51.45;102154.06;5202851;28;20148;-59
2023/03/28 09:36:33;;;;;;;4.07;0.90;;;13.40;60.60;;;13.91;50.86;102145.88;5202503;28;20046;-59
2023/03/28 09:39:18;;;;;;;2.90;0.90;;;13.40;60.00;;;13.86;50.61;102147.38;5203233;28;20092;-59
2023/03/28 09:41:58;;;;;;;2.25;1.05;;;13.30;60.00;;;13.99;51.66;102154.06;5219350;28;20515;-59
2023/03/28 09:45:08;;;;;;;4.78;0.93;;;13.40;60.70;;;14.19;51.33;102142.66;5199501;28;20050;-60
2023/03/28 09:47:58;;;;;;;2.53;1.00;;;13.60;60.90;;;14.32;51.19;102138.81;5200297;28;20064;-59
2023/03/28 09:50:34;;;;;;;2.47;1.40;;;13.70;60.80;;;14.31;51.73;102137.03;5195351;28;20510;-59
2023/03/28 09:53:27;;;;;;;2.08;0.90;;;13.80;61.30;;;14.26;52.32;102123.72;5216267;28;20052;-58
2023/03/28 09:56:06;;;;;;;4.00;0.90;;;13.70;61.60;;;14.11;52.43;102118.75;5204097;28;20034;-59
2023/03/28 09:58:50;;;;;;;2.35;0.80;;;13.60;62.20;;;14.00;53.90;102120.03;5196079;28;20038;-58
2023/03/28 10:01:37;;;;;;;2.33;0.73;;;13.60;62.90;;;13.75;53.07;102122.44;5202749;28;20045;-60
2023/03/28 10:04:18;;;;;;;3.00;0.85;;;13.40;62.30;;;13.51;53.68;102117.06;5203774;28;20053;-59
2023/03/28 10:07:27;;;;;;;5.15;0.73;;;13.20;62.60;;;13.22;53.06;102124.50;5203737;28;20054;-59
2023/03/28 10:10:18;;;;;;;2.88;1.17;;;12.90;62.10;;;13.32;53.79;102124.91;5202782;28;20049;-59
2023/03/28 10:12:58;;;;;;;3.95;0.80;;;12.90;62.90;;;13.46;52.24;102113.31;5196535;28;20056;-59
2023/03/28 10:15:40;;;;;;;3.25;0.88;;;13.00;62.00;;;13.49;52.45;102114.34;5227552;28;20038;-60
2023/03/28 10:18:35;;;;;;;3.75;0.90;;;13.10;62.10;;;13.41;50.09;102107.88;5203579;28;20132;-60
2023/03/28 10:21:36;;;;;;;1.13;0.45;;;13.00;59.80;;;13.36;50.55;102105.88;5194752;28;20046;-59
2023/03/28 10:24:20;;;;;;;2.30;0.60;;;12.90;59.70;;;13.48;50.78;102111.66;5202345;28;20136;-59
2023/03/28 10:27:06;;;;;;;3.80;0.70;;;13.00;60.40;;;13.57;49.80;102102.50;5206429;28;20107;-59
2023/03/28 10:29:40;;;;;;;1.75;0.93;;;13.10;59.90;;;13.57;50.21;102101.59;5206033;28;20048;-58
2023/03/28 10:32:14;;;;;;;2.25;0.70;;;13.10;59.70;;;13.51;49.19;102098.72;5206685;28;20114;-59
2023/03/28 10:35:01;;;;;;;3.22;1.02;;;13.10;59.00;;;13.46;49.00;102093.25;5206676;28;20549;-58
2023/03/28 10:37:48;;;;;;;1.67;0.52;;;13.10;58.80;;;13.46;49.20;102097.59;5212949;28;20045;-60
2023/03/28 10:40:53;;;;;;;0.95;0.47;;;13.10;58.60;;;13.51;48.68;102090.84;5199321;28;20053;-59
2023/03/28 10:43:37;;;;;;;1.70;0.60;;;13.10;59.00;;;13.61;49.72;102072.06;5206307;28;20119;-59
2023/03/28 10:46:39;;;;;;;2.92;0.50;;;13.10;59.20;;;13.76;49.79;102067.50;5206859;28;20522;-59
2023/03/28 10:49:41;;;;;;;1.35;0.50;;;13.30;59.50;;;13.89;49.63;102054.88;5206235;28;20056;-59
2023/03/28 10:52:23;;;;;;;1.00;0.50;;;13.40;59.40;;;13.85;47.96;102052.13;5206310;28;20502;-59
2023/03/28 10:55:14;;;;;;;3.65;1.10;;;13.40;57.90;;;13.78;47.40;102052.72;5205896;28;20088;-59
2023/03/28 10:58:16;;;;;;;4.07;1.30;;;13.30;57.40;;;13.71;47.89;102053.28;5218607;28;20445;-59
2023/03/28 11:01:01;;;;;;;1.58;0.77;;;13.30;57.50;;;13.64;47.93;102045.13;5206267;28;20045;-59
2023/03/28 11:04:02;;;;;;;1.40;0.60;;;13.30;57.90;;;13.52;46.48;102042.88;5218689;28;20100;-58
2023/03/28 11:06:43;;;;;;;1.17;0.50;;;13.20;56.40;;;13.44;46.94;102041.66;5205492;28;20137;-59
2023/03/28 11:09:25;;;;;;;1.92;0.50;;;13.10;56.70;;;13.45;47.78;102028.59;5219389;28;20053;-59
2023/03/28 11:12:41;;;;;;;0.70;0.45;;;13.10;57.60;;;13.51;48.15;102028.88;5207154;28;20525;-59
2023/03/28 11:15:19;;;;;;;0.60;0.40;;;13.10;58.00;;;13.59;48.32;102026.56;5205786;28;20046;-59